Time;durP1;ratioP1;P1;durP2;ratioP2;P2;SDS_P1;SDS_P2;PMS_P1;PMS_P2;Temp;Humidity;BMP_temperature;BMP_pressure;BME280_temperature;BME280_humidity;BME280_pressure;Samples;Min_cycle;Max_cycle;Signal;HPM_P1;HPM_P2
2022/05/04 00:03:39;;;;;;;;;;;11.70;87.70;;;;;;8389732;28;19928;-69
2022/05/04 00:07:40;;;;;;;;;;;11.70;87.80;;;;;;8378480;28;20291;-69
2022/05/04 00:11:44;;;;;;;;;;;11.60;87.80;;;;;;8397160;28;20390;-69
2022/05/04 00:15:45;;;;;;;;;;;11.60;87.70;;;;;;8378444;28;19925;-69
2022/05/04 00:19:47;;;;;;;;;;;11.60;87.90;;;;;;8385319;28;19924;-69
2022/05/04 00:23:49;;;;;;;;;;;11.60;87.90;;;;;;8392111;28;19927;-69
2022/05/04 00:27:51;;;;;;;;;;;11.50;87.90;;;;;;8386337;28;19920;-69
2022/05/04 00:31:53;;;;;;;;;;;11.50;88.10;;;;;;8380401;28;19920;-69
2022/05/04 00:35:54;;;;;;;;;;;11.40;88.00;;;;;;8386575;28;19931;-69
2022/05/04 00:39:56;;;;;;;;;;;11.40;88.00;;;;;;8379024;28;19936;-69
2022/05/04 00:43:58;;;;;;;;;;;11.40;88.10;;;;;;8391305;28;19920;-69
2022/05/04 00:47:59;;;;;;;;;;;11.30;88.00;;;;;;8387737;28;19931;-69
2022/05/04 00:52:02;;;;;;;;;;;11.30;88.10;;;;;;8391078;28;19928;-69
2022/05/04 00:56:04;;;;;;;;;;;11.20;87.90;;;;;;8386460;28;19920;-69
2022/05/04 01:00:07;;;;;;;;;;;11.20;88.10;;;;;;8382467;28;20279;-69
2022/05/04 01:04:09;;;;;;;;;;;11.10;88.00;;;;;;8394901;28;19921;-69
2022/05/04 01:08:11;;;;;;;;;;;11.10;88.00;;;;;;8387107;28;19927;-69
2022/05/04 01:12:12;;;;;;;;;;;11.00;87.90;;;;;;8377985;28;19931;-69
2022/05/04 01:16:14;;;;;;;;;;;10.90;87.80;;;;;;8388463;28;19927;-69
2022/05/04 01:20:16;;;;;;;;;;;10.80;87.70;;;;;;8381411;28;20018;-69
2022/05/04 01:24:18;;;;;;;;;;;10.70;87.70;;;;;;8392739;28;19975;-69
2022/05/04 01:28:20;;;;;;;;;;;10.60;87.70;;;;;;8385175;28;19924;-69
2022/05/04 01:32:21;;;;;;;;;;;10.60;87.80;;;;;;8382854;28;20049;-69
2022/05/04 01:36:23;;;;;;;;;;;10.50;87.80;;;;;;8385185;28;19920;-69
2022/05/04 01:40:25;;;;;;;;;;;10.40;87.70;;;;;;8380444;28;19929;-69
2022/05/04 01:44:26;;;;;;;;;;;10.40;87.60;;;;;;8373812;28;19924;-69
2022/05/04 01:48:28;;;;;;;;;;;10.40;87.80;;;;;;8384298;28;19920;-69
2022/05/04 01:52:29;;;;;;;;;;;10.40;87.90;;;;;;8376976;28;19960;-69
2022/05/04 01:56:31;;;;;;;;;;;10.30;87.90;;;;;;8390950;28;19921;-69
2022/05/04 02:00:33;;;;;;;;;;;10.30;88.00;;;;;;8380812;28;19930;-69
2022/05/04 02:04:35;;;;;;;;;;;10.30;88.00;;;;;;8376142;28;19920;-69
2022/05/04 02:08:37;;;;;;;;;;;10.30;88.50;;;;;;8375650;28;20311;-69
2022/05/04 02:12:39;;;;;;;;;;;10.30;89.00;;;;;;8374170;28;19921;-69
2022/05/04 02:16:40;;;;;;;;;;;10.30;89.30;;;;;;8384384;28;19927;-69
2022/05/04 02:20:42;;;;;;;;;;;10.20;89.50;;;;;;8379724;28;20018;-69
2022/05/04 02:24:44;;;;;;;;;;;10.20;90.10;;;;;;8384361;28;19921;-69
2022/05/04 02:28:45;;;;;;;;;;;10.20;90.30;;;;;;8411467;28;19920;-69
2022/05/04 02:32:47;;;;;;;;;;;10.20;90.60;;;;;;8384353;28;20414;-69
2022/05/04 02:41:09;;;;;;;;;;;10.10;89.50;;;;;;8389289;28;19928;-69
2022/05/04 02:45:10;;;;;;;;;;;10.20;89.30;;;;;;8377930;28;19924;-69
2022/05/04 02:49:12;;;;;;;;;;;10.10;88.90;;;;;;8386144;28;19921;-69
2022/05/04 02:53:13;;;;;;;;;;;10.10;88.70;;;;;;8371758;28;20260;-69
2022/05/04 02:57:15;;;;;;;;;;;10.10;89.20;;;;;;8386193;28;20341;-69
2022/05/04 03:05:37;;;;;;;;;;;10.00;89.40;;;;;;8387974;28;19924;-69
2022/05/04 03:09:39;;;;;;;;;;;9.90;90.20;;;;;;8388279;28;19942;-69
2022/05/04 03:13:41;;;;;;;;;;;9.80;90.20;;;;;;8382506;28;20347;-69
2022/05/04 03:17:42;;;;;;;;;;;9.70;90.30;;;;;;8384280;28;19921;-69
2022/05/04 03:21:44;;;;;;;;;;;9.60;90.00;;;;;;8388591;28;20374;-69
2022/05/04 03:25:46;;;;;;;;;;;9.60;90.00;;;;;;8393179;28;20291;-69
2022/05/04 03:29:47;;;;;;;;;;;9.60;90.00;;;;;;8378530;28;19929;-69
2022/05/04 03:33:49;;;;;;;;;;;9.50;90.40;;;;;;8388179;28;19921;-69
2022/05/04 03:37:51;;;;;;;;;;;9.50;90.30;;;;;;8390109;28;19920;-69
2022/05/04 03:41:52;;;;;;;;;;;9.40;90.30;;;;;;8389629;28;19921;-69
2022/05/04 03:45:54;;;;;;;;;;;9.40;90.70;;;;;;8389610;28;19920;-69
2022/05/04 03:49:56;;;;;;;;;;;9.40;90.80;;;;;;8395650;28;19935;-69
2022/05/04 03:53:57;;;;;;;;;;;9.30;90.90;;;;;;8391149;28;19936;-69
2022/05/04 03:57:59;;;;;;;;;;;9.20;90.70;;;;;;8391259;28;20007;-69
2022/05/04 04:02:01;;;;;;;;;;;9.20;90.90;;;;;;8390155;28;19929;-69
2022/05/04 04:06:03;;;;;;;;;;;9.10;90.80;;;;;;8394264;28;19966;-69
2022/05/04 04:10:04;;;;;;;;;;;9.00;90.50;;;;;;8376509;28;19921;-69
2022/05/04 04:14:06;;;;;;;;;;;8.90;91.00;;;;;;8393405;28;20368;-69
2022/05/04 04:18:08;;;;;;;;;;;8.80;90.70;;;;;;8388039;28;20322;-68
2022/05/04 04:22:10;;;;;;;;;;;8.70;90.70;;;;;;8393971;28;19939;-69
2022/05/04 04:26:12;;;;;;;;;;;8.60;90.60;;;;;;8388953;28;19929;-69
2022/05/04 04:30:14;;;;;;;;;;;8.50;90.40;;;;;;8394576;28;19927;-69
2022/05/04 04:34:15;;;;;;;;;;;8.50;90.30;;;;;;8391080;28;19924;-69
2022/05/04 04:38:17;;;;;;;;;;;8.40;90.10;;;;;;8400040;28;19947;-68
2022/05/04 04:42:20;;;;;;;;;;;8.30;90.20;;;;;;8390741;28;19925;-69
2022/05/04 04:46:21;;;;;;;;;;;8.30;90.00;;;;;;8386053;28;19931;-69
2022/05/04 04:50:23;;;;;;;;;;;8.20;90.00;;;;;;8386775;28;19921;-69
2022/05/04 04:54:25;;;;;;;;;;;8.20;90.00;;;;;;8386715;28;19928;-69
2022/05/04 04:58:26;;;;;;;;;;;8.20;90.00;;;;;;8383593;28;19929;-69
2022/05/04 05:02:28;;;;;;;;;;;8.20;90.10;;;;;;8393389;28;19924;-69
2022/05/04 05:06:30;;;;;;;;;;;8.20;90.10;;;;;;8394034;28;20372;-69
2022/05/04 05:10:32;;;;;;;;;;;8.20;90.10;;;;;;8376720;28;19927;-69
2022/05/04 05:18:54;;;;;;;;;;;8.30;90.30;;;;;;8386549;28;19931;-69
2022/05/04 05:22:56;;;;;;;;;;;8.40;90.50;;;;;;8384551;28;19920;-69
2022/05/04 05:26:58;;;;;;;;;;;8.40;90.90;;;;;;8374899;28;19935;-69
2022/05/04 05:31:00;;;;;;;;;;;8.50;91.10;;;;;;8382534;28;20364;-69
2022/05/04 05:35:02;;;;;;;;;;;8.60;91.30;;;;;;8383037;28;19966;-69
2022/05/04 05:39:04;;;;;;;;;;;8.70;91.60;;;;;;8382946;28;19921;-69
2022/05/04 05:43:13;;;;;;;;;;;8.80;91.80;;;;;;8448944;27;19916;-69
2022/05/04 05:47:15;;;;;;;;;;;9.00;91.90;;;;;;8445397;28;19924;-69
2022/05/04 05:51:16;;;;;;;;;;;9.10;92.00;;;;;;8451557;28;19924;-69
2022/05/04 05:55:18;;;;;;;;;;;9.30;92.10;;;;;;8439085;28;19932;-69
2022/05/04 05:59:20;;;;;;;;;;;9.50;92.70;;;;;;8446018;28;19943;-69
2022/05/04 06:03:22;;;;;;;;;;;9.70;92.50;;;;;;8444524;28;19931;-69
2022/05/04 06:07:23;;;;;;;;;;;9.90;92.70;;;;;;8475002;27;19924;-69
2022/05/04 06:11:25;;;;;;;;;;;10.10;92.10;;;;;;8411799;28;19932;-69
2022/05/04 06:15:26;;;;;;;;;;;10.20;92.00;;;;;;8416785;28;19933;-69
2022/05/04 06:19:28;;;;;;;;;;;10.30;91.90;;;;;;8412389;28;19924;-69
2022/05/04 06:23:30;;;;;;;;;;;10.50;92.00;;;;;;8412957;28;19951;-69
2022/05/04 06:27:32;;;;;;;;;;;10.60;92.00;;;;;;8413184;28;20395;-69
2022/05/04 06:35:54;;;;;;;;;;;10.80;92.00;;;;;;8411871;28;19932;-69
2022/05/04 06:39:56;;;;;;;;;;;11.00;92.10;;;;;;8411744;28;19925;-69
2022/05/04 06:43:58;;;;;;;;;;;11.10;92.10;;;;;;8404207;28;19924;-69
2022/05/04 06:47:59;;;;;;;;;;;11.20;92.20;;;;;;8419315;28;19958;-69
2022/05/04 06:52:01;;;;;;;;;;;11.40;92.30;;;;;;8405418;28;19925;-69
2022/05/04 06:56:03;;;;;;;;;;;11.50;92.50;;;;;;8392278;28;19980;-69
2022/05/04 07:00:05;;;;;;;;;;;11.60;92.20;;;;;;8410127;27;19935;-69
2022/05/04 07:04:10;;;;;;;;;;;11.60;92.30;;;;;;8385247;28;19931;-69
2022/05/04 07:08:11;;;;;;;;;;;11.80;92.40;;;;;;8387615;28;19924;-69
2022/05/04 07:12:13;;;;;;;;;;;11.90;92.50;;;;;;8392014;28;19931;-69
2022/05/04 07:16:15;;;;;;;;;;;12.00;92.50;;;;;;8390115;28;19928;-69
2022/05/04 07:20:16;;;;;;;;;;;12.10;92.50;;;;;;8387778;28;20378;-69
2022/05/04 07:24:18;;;;;;;;;;;12.20;92.30;;;;;;8391408;28;19939;-69
2022/05/04 07:28:20;;;;;;;;;;;12.20;92.20;;;;;;8389707;28;19928;-69
2022/05/04 07:32:22;;;;;;;;;;;12.20;92.00;;;;;;8391701;28;19924;-69
2022/05/04 07:36:23;;;;;;;;;;;12.10;91.90;;;;;;8392520;28;19947;-69
2022/05/04 07:45:10;;;;;;;;;;;12.20;91.90;;;;;;8376076;28;20406;-69
2022/05/04 07:49:12;;;;;;;;;;;12.30;92.10;;;;;;8381494;28;20295;-69
2022/05/04 07:53:14;;;;;;;;;;;12.50;92.30;;;;;;8422265;27;19924;-69
2022/05/04 07:57:19;;;;;;;;;;;12.60;92.10;;;;;;8391138;28;19925;-69
2022/05/04 08:05:41;;;;;;;;;;;12.70;92.20;;;;;;8387113;28;19928;-69
2022/05/04 08:09:43;;;;;;;;;;;12.80;92.20;;;;;;8386826;28;20283;-69
2022/05/04 08:13:45;;;;;;;;;;;12.90;92.20;;;;;;8386909;28;20291;-69
2022/05/04 08:17:46;;;;;;;;;;;12.90;92.20;;;;;;8387687;28;19939;-69
2022/05/04 08:21:48;;;;;;;;;;;13.00;92.10;;;;;;8386745;28;19932;-69
2022/05/04 08:25:50;;;;;;;;;;;13.00;91.70;;;;;;8423785;27;19943;-69
2022/05/04 08:29:51;;;;;;;;;;;12.90;91.70;;;;;;8386898;28;19928;-69
2022/05/04 08:33:54;;;;;;;;;;;12.90;91.60;;;;;;8388106;28;19967;-69
2022/05/04 08:37:55;;;;;;;;;;;12.90;91.50;;;;;;8390575;28;19928;-70
2022/05/04 08:42:00;;;;;;;;;;;13.00;91.60;;;;;;8424115;27;19928;-69
2022/05/04 08:46:03;;;;;;;;;;;13.00;91.60;;;;;;8386719;28;19935;-70
2022/05/04 08:50:08;;;;;;;;;;;13.10;91.50;;;;;;8388398;28;19978;-69
2022/05/04 08:54:10;;;;;;;;;;;13.10;91.70;;;;;;8385925;28;19935;-70
2022/05/04 08:58:12;;;;;;;;;;;13.10;91.60;;;;;;8384777;28;19936;-70
2022/05/04 09:02:13;;;;;;;;;;;13.10;91.40;;;;;;8382905;28;19925;-69
2022/05/04 09:06:25;;;;;;;;;;;13.20;91.30;;;;;;8385919;28;20347;-69
2022/05/04 09:10:31;;;;;;;;;;;13.20;91.60;;;;;;8384879;28;19939;-69
2022/05/04 09:14:35;;;;;;;;;;;13.40;91.70;;;;;;8384169;28;20313;-69
2022/05/04 09:18:36;;;;;;;;;;;13.40;91.60;;;;;;8387772;28;19928;-69
2022/05/04 09:22:38;;;;;;;;;;;13.60;91.80;;;;;;8387743;28;19931;-69
2022/05/04 09:26:43;;;;;;;;;;;13.70;91.80;;;;;;8386231;28;19932;-70
2022/05/04 09:30:46;;;;;;;;;;;13.70;91.70;;;;;;8385691;28;19935;-70
2022/05/04 09:34:49;;;;;;;;;;;13.80;92.10;;;;;;8386640;28;19924;-70
2022/05/04 09:47:43;;;;;;;4.88;2.00;;;13.80;92.10;;;;;;8386416;28;19925;-70
2022/05/04 09:51:51;;;;;;;3.80;1.60;;;14.10;92.50;;;;;;8385889;28;20408;-70
2022/05/04 09:55:56;;;;;;;;;;;14.20;92.40;;;;;;8399047;28;19947;-70
2022/05/04 09:59:57;;;;;;;;;;;14.20;91.80;;;;;;8385279;28;19924;-70
2022/05/04 10:04:00;;;;;;;;;;;14.30;92.10;;;;;;8387348;28;19920;-70
2022/05/04 10:08:02;;;;;;;;;;;14.30;92.00;;;;;;8383622;28;19947;-70
2022/05/04 10:12:05;;;;;;;;;;;14.40;92.30;;;;;;8382930;28;19920;-70
2022/05/04 10:16:10;;;;;;;;;;;14.60;92.30;;;;;;8386081;28;19920;-70
2022/05/04 10:20:13;;;;;;;;;;;14.70;92.00;;;;;;8387107;28;20010;-70
2022/05/04 10:24:16;;;;;;;;;;;14.70;91.70;;;;;;8386321;28;19920;-70
2022/05/04 10:28:18;;;;;;;;;;;14.80;91.90;;;;;;8392677;28;19931;-70
2022/05/04 10:32:41;;;;;;;;;;;15.00;92.10;;;;;;8390288;28;19920;-69
2022/05/04 10:36:45;;;;;;;;;;;15.30;92.80;;;;;;8390081;28;19921;-70
2022/05/04 10:40:53;;;;;;;;;;;15.70;92.70;;;;;;8402589;28;20364;-70
2022/05/04 10:44:56;;;;;;;;;;;15.90;92.80;;;;;;8391792;28;19928;-70
2022/05/04 10:49:05;;;;;;;;;;;16.00;92.60;;;;;;8387992;28;19931;-70
2022/05/04 10:53:17;;;;;;;;;;;15.90;92.80;;;;;;8393085;28;19943;-69
2022/05/04 10:57:37;;;;;;;;;;;16.00;92.90;;;;;;8389520;28;19943;-70
2022/05/04 11:02:01;;;;;;;;;;;16.00;93.00;;;;;;8388600;28;19926;-69
2022/05/04 11:06:06;;;;;;;;;;;16.20;93.10;;;;;;8395451;28;19931;-70
2022/05/04 11:10:12;;;;;;;;;;;16.40;93.10;;;;;;8388184;28;20015;-70
2022/05/04 11:14:15;;;;;;;;;;;16.60;93.50;;;;;;8389678;28;20299;-70
2022/05/04 11:18:20;;;;;;;;;;;16.70;93.50;;;;;;8390634;28;19943;-70
2022/05/04 11:22:27;;;;;;;;;;;16.70;93.50;;;;;;8391131;28;19949;-70
2022/05/04 11:26:52;;;;;;;;;;;16.80;93.20;;;;;;8389553;28;20350;-70
2022/05/04 11:30:54;;;;;;;;;;;16.80;91.70;;;;;;8388787;28;20364;-70
2022/05/04 11:34:56;;;;;;;;;;;16.90;93.60;;;;;;8390137;28;19928;-70
2022/05/04 11:38:58;;;;;;;;;;;17.20;94.10;;;;;;8390804;28;19927;-70
2022/05/04 11:42:59;;;;;;;;;;;17.20;93.50;;;;;;8392024;28;19920;-70
2022/05/04 11:47:02;;;;;;;;;;;17.20;94.00;;;;;;8388391;28;19928;-70
2022/05/04 11:51:04;;;;;;;;;;;17.20;94.10;;;;;;8400687;28;19978;-70
2022/05/04 11:55:06;;;;;;;;;;;17.30;93.70;;;;;;8420347;27;20320;-70
2022/05/04 11:59:08;;;;;;;;;;;17.20;93.00;;;;;;8394733;28;19982;-70
2022/05/04 12:03:09;;;;;;;;;;;17.20;92.90;;;;;;8391132;28;19931;-70
2022/05/04 12:07:11;;;;;;;;;;;17.30;93.00;;;;;;8386375;28;19935;-70
2022/05/04 12:11:15;;;;;;;;;;;17.40;93.00;;;;;;8386396;28;19947;-70
2022/05/04 12:15:16;;;;;;;;;;;17.40;93.90;;;;;;8391416;28;19931;-70
2022/05/04 12:19:18;;;;;;;;;;;17.40;93.60;;;;;;8383560;28;19952;-70
2022/05/04 12:23:20;;;;;;;;;;;17.20;93.20;;;;;;8387226;28;19947;-70
2022/05/04 12:27:22;;;;;;;4.43;2.08;;;17.20;93.40;;;;;;8420590;27;20355;-70
2022/05/04 12:35:46;;;;;;;4.07;2.05;;;17.40;92.90;;;;;;8390450;28;20044;-70
2022/05/04 12:39:50;;;;;;;;;;;17.30;92.10;;;;;;8395879;28;20060;-70
2022/05/04 12:43:52;;;;;;;;;;;17.20;92.20;;;;;;8401264;28;20303;-70
2022/05/04 12:47:54;;;;;;;;;;;17.20;91.90;;;;;;8384371;28;19983;-70
2022/05/04 12:51:59;;;;;;;;;;;17.10;91.60;;;;;;8390023;28;19928;-70
2022/05/04 13:00:21;;;;;;;;;;;17.60;92.90;;;;;;8387719;28;20398;-70
2022/05/04 13:04:22;;;;;;;;;;;17.90;93.80;;;;;;8387474;28;19928;-70
2022/05/04 13:08:24;;;;;;;;;;;18.00;93.70;;;;;;8388404;28;19935;-70
2022/05/04 13:12:26;;;;;;;;;;;18.10;93.30;;;;;;8386164;28;20151;-70
2022/05/04 13:16:27;;;;;;;;;;;18.20;93.30;;;;;;8390815;28;19970;-70
2022/05/04 13:20:29;;;;;;;;;;;18.20;92.60;;;;;;8384879;28;20332;-70
2022/05/04 13:24:31;;;;;;;;;;;18.20;92.80;;;;;;8385811;28;19983;-70
2022/05/04 13:28:32;;;;;;;;;;;18.30;92.70;;;;;;8386517;28;20670;-70
2022/05/04 13:32:34;;;;;;;;;;;18.20;92.20;;;;;;8392910;28;20343;-70
2022/05/04 13:36:35;;;;;;;;;;;18.10;91.90;;;;;;8385608;28;19924;-70
2022/05/04 13:40:37;;;;;;;;;;;18.00;92.00;;;;;;8386974;28;19928;-70
2022/05/04 13:44:39;;;;;;;;;;;18.00;91.30;;;;;;8386932;28;19924;-71
2022/05/04 13:48:41;;;;;;;;;;;18.10;92.30;;;;;;8385083;28;19940;-70
2022/05/04 13:57:03;;;;;;;;;;;18.70;93.70;;;;;;8383918;28;19928;-70
2022/05/04 14:01:04;;;;;;;;;;;18.80;93.30;;;;;;8385786;28;19924;-70
2022/05/04 14:05:06;;;;;;;;;;;18.80;93.10;;;;;;8391430;28;19935;-70
2022/05/04 14:09:08;;;;;;;;;;;18.80;92.90;;;;;;8390319;28;20395;-71
2022/05/04 14:13:10;;;;;;;;;;;18.90;92.80;;;;;;8393678;28;19939;-70
2022/05/04 14:17:12;;;;;;;;;;;19.10;92.80;;;;;;8395284;28;19924;-70
2022/05/04 14:21:14;;;;;;;;;;;19.20;92.80;;;;;;8388560;28;20356;-70
2022/05/04 14:25:15;;;;;;;;;;;19.30;92.80;;;;;;8393213;28;19928;-70
2022/05/04 14:29:19;;;;;;;;;;;19.50;93.20;;;;;;8384645;28;19971;-70
2022/05/04 14:33:21;;;;;;;;;;;19.80;93.60;;;;;;8395149;28;20368;-70
2022/05/04 14:37:22;;;;;;;;;;;19.90;93.30;;;;;;8393046;28;19939;-70
2022/05/04 14:41:26;;;;;;;;;;;19.90;93.10;;;;;;8387404;28;19932;-70
2022/05/04 14:45:27;;;;;;;;;;;19.90;92.90;;;;;;8386607;28;20387;-70
2022/05/04 14:49:29;;;;;;;;;;;19.90;92.90;;;;;;8385921;28;19928;-70
2022/05/04 14:53:31;;;;;;;;;;;20.00;93.10;;;;;;8395872;28;19927;-70
2022/05/04 14:57:33;;;;;;;;;;;20.00;92.90;;;;;;8388373;28;20003;-70
2022/05/04 15:01:35;;;;;;;;;;;19.90;92.50;;;;;;8387725;28;19928;-70
2022/05/04 15:05:36;;;;;;;;;;;19.80;92.20;;;;;;8388817;28;19923;-70
2022/05/04 15:09:38;;;;;;;;;;;19.80;92.20;;;;;;8388625;28;19931;-70
2022/05/04 15:13:40;;;;;;;;;;;19.70;91.90;;;;;;8419609;27;19927;-70
2022/05/04 15:17:41;;;;;;;;;;;19.50;91.60;;;;;;8390413;28;19959;-68
2022/05/04 15:21:43;;;;;;;;;;;19.40;91.40;;;;;;8390466;28;19971;-68
2022/05/04 15:25:45;;;;;;;;;;;19.40;91.50;;;;;;8379623;28;19974;-68
2022/05/04 15:29:47;;;;;;;;;;;19.70;92.20;;;;;;8366153;28;20373;-68
2022/05/04 15:33:48;;;;;;;;;;;20.20;93.30;;;;;;8388412;28;19920;-69
2022/05/04 15:37:50;;;;;;;;;;;20.80;94.00;;;;;;8389762;28;19920;-70
2022/05/04 15:41:52;;;;;;;;;;;21.10;93.50;;;;;;8395077;28;19927;-70
2022/05/04 15:45:54;;;;;;;;;;;21.10;92.90;;;;;;8400631;28;19974;-75
2022/05/04 15:49:56;;;;;;;;;;;20.80;92.60;;;;;;8397211;28;20311;-70
2022/05/04 15:53:58;;;;;;;;;;;20.70;92.50;;;;;;8390360;28;19927;-70
2022/05/04 15:57:59;;;;;;;;;;;21.00;93.50;;;;;;8415829;27;19932;-70
2022/05/04 16:02:01;;;;;;;;;;;21.40;94.50;;;;;;8383188;28;19931;-70
2022/05/04 16:06:03;;;;;;;;;;;21.80;95.30;;;;;;8385999;28;19939;-70
2022/05/04 16:10:06;;;;;;;;;;;21.80;95.20;;;;;;8384065;28;19927;-68
2022/05/04 16:14:08;;;;;;;;;;;21.90;95.20;;;;;;8386605;28;19927;-68
2022/05/04 16:22:30;;;;;;;;;;;22.20;95.10;;;;;;8386657;28;19928;-68
2022/05/04 16:26:31;;;;;;;;;;;22.30;95.10;;;;;;8382395;28;19924;-68
2022/05/04 16:30:33;;;;;;;;;;;22.60;95.20;;;;;;8384344;28;19932;-68
2022/05/04 16:34:35;;;;;;;;;;;22.70;94.80;;;;;;8389424;28;20287;-68
2022/05/04 16:38:36;;;;;;;;;;;22.70;94.80;;;;;;8384463;28;20379;-68
2022/05/04 16:42:39;;;;;;;;;;;22.90;95.70;;;;;;8384928;28;20371;-68
2022/05/04 16:46:41;;;;;;;;;;;22.90;95.10;;;;;;8390296;28;19971;-68
2022/05/04 16:50:43;;;;;;;;;;;22.60;94.20;;;;;;8385407;28;19924;-68
2022/05/04 16:54:45;;;;;;;;;;;22.60;94.10;;;;;;8383451;28;19920;-68
2022/05/04 16:58:47;;;;;;;;;;;22.70;94.20;;;;;;8387944;28;20383;-68
2022/05/04 17:02:48;;;;;;;;;;;22.70;93.40;;;;;;8385951;28;19920;-68
2022/05/04 17:06:50;;;;;;;;;;;22.60;92.90;;;;;;8384325;28;19956;-68
2022/05/04 17:10:52;;;;;;;;;;;22.70;92.80;;;;;;8387234;28;19946;-70
2022/05/04 17:14:53;;;;;;;;;;;22.70;92.60;;;;;;8383058;28;20015;-70
2022/05/04 17:18:56;;;;;;;;;;;22.70;92.10;;;;;;8386651;28;20339;-70
2022/05/04 17:22:58;;;;;;;;;;;22.70;92.00;;;;;;8387675;28;19920;-70
2022/05/04 17:27:00;;;;;;;;;;;22.60;91.90;;;;;;8400887;28;20296;-71
2022/05/04 17:31:01;;;;;;;;;;;22.70;91.70;;;;;;8384334;28;19927;-70
2022/05/04 17:39:24;;;;;;;;;;;22.50;90.50;;;;;;8385897;28;19956;-71
2022/05/04 17:43:26;;;;;;;;;;;22.10;89.30;;;;;;8385962;28;19920;-70
2022/05/04 17:47:28;;;;;;;;;;;21.80;88.40;;;;;;8386797;28;20305;-71
2022/05/04 17:51:29;;;;;;;;;;;21.50;87.10;;;;;;8386419;28;19935;-71
2022/05/04 17:55:31;;;;;;;;;;;21.20;86.10;;;;;;8389467;28;19928;-71
2022/05/04 17:59:33;;;;;;;;;;;20.90;85.70;;;;;;8387426;28;19924;-71
2022/05/04 18:03:34;;;;;;;;;;;20.50;85.40;;;;;;8386199;28;19931;-71
2022/05/04 18:07:36;;;;;;;;;;;20.40;85.50;;;;;;8385199;28;19967;-71
2022/05/04 18:11:38;;;;;;;;;;;20.20;86.80;;;;;;8383933;28;19931;-71
2022/05/04 18:15:39;;;;;;;;;;;20.00;87.60;;;;;;8419635;27;19920;-71
2022/05/04 18:19:41;;;;;;;;;;;19.80;87.70;;;;;;8381161;28;19926;-71
2022/05/04 18:23:43;;;;;;;;;;;19.60;88.40;;;;;;8387617;28;19921;-71
2022/05/04 18:27:45;;;;;;;;;;;19.40;88.80;;;;;;8382673;28;19924;-71
2022/05/04 18:31:46;;;;;;;;;;;19.20;88.80;;;;;;8383370;28;19975;-71
2022/05/04 18:35:48;;;;;;;;;;;19.10;88.80;;;;;;8381145;28;20415;-70
2022/05/04 18:39:51;;;;;;;;;;;19.00;88.80;;;;;;8384664;28;19980;-71
2022/05/04 18:43:53;;;;;;;;;;;18.80;88.50;;;;;;8387316;28;19920;-70
2022/05/04 18:47:56;;;;;;;;;;;18.70;88.70;;;;;;8381417;28;19924;-70
2022/05/04 18:51:58;;;;;;;;;;;18.60;88.80;;;;;;8425267;27;19943;-70
2022/05/04 18:56:21;;;;;;;;;;;18.40;88.40;;;;;;8398765;28;19967;-70
2022/05/04 19:00:26;;;;;;;;;;;18.30;88.70;;;;;;8393858;28;19946;-70
2022/05/04 19:04:30;;;;;;;;;;;18.10;86.60;;;;;;8398436;28;19925;-70
2022/05/04 19:08:32;;;;;;;;;;;18.10;86.80;;;;;;8387342;28;19927;-70
2022/05/04 19:12:34;;;;;;;;;;;17.90;86.70;;;;;;8393312;28;19920;-70
2022/05/04 19:16:35;;;;;;;;;;;17.80;85.80;;;;;;8390813;28;19924;-71
2022/05/04 19:20:37;;;;;;;;;;;17.60;85.20;;;;;;8393605;28;19924;-70
2022/05/04 19:24:39;;;;;;;;;;;17.50;84.40;;;;;;8391561;28;20031;-71
2022/05/04 19:28:41;;;;;;;;;;;17.50;84.30;;;;;;8389109;28;19955;-70
2022/05/04 19:32:43;;;;;;;;;;;17.40;84.00;;;;;;8391454;28;19920;-71
2022/05/04 19:36:44;;;;;;;;;;;17.20;83.70;;;;;;8420863;27;19924;-71
2022/05/04 19:40:47;;;;;;;;;;;17.20;83.50;;;;;;8423110;27;20618;-70
2022/05/04 19:44:49;;;;;;;;;;;17.00;83.60;;;;;;8392758;28;19959;-70
2022/05/04 19:48:50;;;;;;;;;;;16.90;83.30;;;;;;8392204;28;19934;-70
2022/05/04 19:52:52;;;;;;;;;;;16.80;83.40;;;;;;8396528;28;19934;-71
2022/05/04 19:56:54;;;;;;;;;;;16.60;83.30;;;;;;8391749;28;20015;-70
2022/05/04 20:00:56;;;;;;;;;;;16.50;83.10;;;;;;8396637;28;19924;-70
2022/05/04 20:05:02;;;;;;;;;;;16.40;82.90;;;;;;8397054;28;19920;-70
2022/05/04 20:09:06;;;;;;;;;;;16.30;82.70;;;;;;8397447;28;19924;-70
2022/05/04 20:13:08;;;;;;;;;;;16.10;82.60;;;;;;8396420;28;20272;-70
2022/05/04 20:17:10;;;;;;;;;;;16.00;83.00;;;;;;8391680;28;20303;-70
2022/05/04 20:21:12;;;;;;;;;;;15.90;83.20;;;;;;8393589;28;19923;-70
2022/05/04 20:25:14;;;;;;;;;;;15.80;83.00;;;;;;8388523;28;19930;-70
2022/05/04 20:29:16;;;;;;;;;;;15.70;82.80;;;;;;8388540;28;20402;-70
2022/05/04 20:33:18;;;;;;;;;;;15.60;82.60;;;;;;8394757;28;19920;-70
2022/05/04 20:38:58;;;;;;;;;;;15.50;82.60;;;;;;8391996;28;20399;-70
2022/05/04 20:41:41;;;;;;;;;;;15.40;82.50;;;;;;8387468;28;19920;-71
2022/05/04 20:45:43;;;;;;;;;;;15.30;82.30;;;;;;8392909;28;19963;-71
2022/05/04 20:49:45;;;;;;;;;;;15.10;82.30;;;;;;8415246;27;20225;-71
2022/05/04 20:53:47;;;;;;;;;;;15.00;82.20;;;;;;8377951;28;20578;-71
2022/05/04 20:57:48;;;;;;;;;;;15.00;82.40;;;;;;8415831;27;19971;-71
2022/05/04 21:01:50;;;;;;;;;;;14.90;82.30;;;;;;8395301;28;19920;-71
2022/05/04 21:05:52;;;;;;;;;;;14.80;82.10;;;;;;8421926;28;19920;-71
2022/05/04 21:09:54;;;;;;;;;;;14.70;82.10;;;;;;8401454;28;19978;-71
2022/05/04 21:13:56;;;;;;;;;;;14.60;82.10;;;;;;8410842;28;19988;-71
2022/05/04 21:17:58;;;;;;;;;;;14.60;82.30;;;;;;8405437;28;19927;-71
2022/05/04 21:22:20;;;;;;;;;;;14.50;82.10;;;;;;8402328;28;19920;-71
2022/05/04 21:26:22;;;;;;;;;;;14.40;82.00;;;;;;8404491;28;20023;-71
2022/05/04 21:30:23;;;;;;;;;;;14.30;82.00;;;;;;8411104;28;19927;-71
2022/05/04 21:34:28;;;;;;;;;;;14.20;82.30;;;;;;8407227;28;19931;-71
2022/05/04 21:38:29;;;;;;;;;;;14.20;82.30;;;;;;8412438;28;19998;-71
2022/05/04 21:42:31;;;;;;;;;;;14.10;82.10;;;;;;8407728;28;19959;-71
2022/05/04 21:46:33;;;;;;;;;;;14.10;82.10;;;;;;8409570;28;19931;-71
2022/05/04 21:50:34;;;;;;;;;;;14.00;82.30;;;;;;8407665;28;19963;-70
2022/05/04 21:54:36;;;;;;;;;;;13.90;82.20;;;;;;8399354;28;20057;-71
2022/05/04 21:58:38;;;;;;;;;;;13.80;82.00;;;;;;8401546;28;19927;-70
2022/05/04 22:02:39;;;;;;;;;;;13.80;82.20;;;;;;8410315;28;19921;-71
2022/05/04 22:06:41;;;;;;;;;;;13.70;81.80;;;;;;8396190;28;19951;-71
2022/05/04 22:13:54;;;;;;;;;;;13.60;81.90;;;;;;8400159;28;19958;-70
2022/05/04 22:15:07;;;;;;;;;;;13.50;81.90;;;;;;8408230;28;19920;-71
2022/05/04 22:19:09;;;;;;;;;;;13.40;82.10;;;;;;8390985;28;19935;-70
2022/05/04 22:23:10;;;;;;;;;;;13.30;81.90;;;;;;8407969;28;19920;-71
2022/05/04 22:27:12;;;;;;;;;;;13.20;82.10;;;;;;8445208;27;19968;-71
2022/05/04 22:31:14;;;;;;;;;;;13.10;82.20;;;;;;8398825;28;19966;-70
2022/05/04 22:35:16;;;;;;;;;;;13.10;82.00;;;;;;8410650;28;19935;-71
2022/05/04 22:39:18;;;;;;;;;;;13.00;81.80;;;;;;8416010;28;20568;-71
2022/05/04 22:43:21;;;;;;;;;;;13.00;81.90;;;;;;8409630;28;22292;-71
2022/05/04 22:47:23;;;;;;;;;;;12.90;81.80;;;;;;8414057;28;20376;-70
2022/05/04 22:51:24;;;;;;;;;;;12.80;81.70;;;;;;8419379;28;19920;-71
2022/05/04 22:55:26;;;;;;;;;;;12.80;82.00;;;;;;8414071;28;19924;-71
2022/05/04 22:59:27;;;;;;;;;;;12.70;81.80;;;;;;8414393;28;20299;-71
2022/05/04 23:03:29;;;;;;;;;;;12.60;81.80;;;;;;8392616;28;19924;-71
2022/05/04 23:07:31;;;;;;;;;;;12.50;81.80;;;;;;8398372;28;19921;-70
2022/05/04 23:11:32;;;;;;;;;;;12.50;81.80;;;;;;8409309;28;19952;-71
2022/05/04 23:19:54;;;;;;;;;;;12.40;81.80;;;;;;8406162;28;19920;-70
2022/05/04 23:23:57;;;;;;;;;;;12.30;81.50;;;;;;8396850;28;19920;-71
2022/05/04 23:27:58;;;;;;;;;;;12.20;81.60;;;;;;8437782;27;19924;-70
2022/05/04 23:32:00;;;;;;;;;;;12.10;81.60;;;;;;8415440;28;19919;-71
2022/05/04 23:40:22;;;;;;;;;;;12.00;81.70;;;;;;8410276;28;19920;-71
2022/05/04 23:44:24;;;;;;;;;;;11.90;81.50;;;;;;8402521;28;19943;-68
2022/05/04 23:48:26;;;;;;;;;;;11.80;81.50;;;;;;8420584;28;20303;-68
2022/05/04 23:52:28;;;;;;;;;;;11.70;81.60;;;;;;8441437;27;20386;-68
2022/05/04 23:56:30;;;;;;;;;;;11.70;81.70;;;;;;8408885;28;19970;-68
